sensor_id;sensor_type;location;lat;lon;timestamp;P1;durP1;ratioP1;P2;durP2;ratioP2
28174;SDS011;59417;44.788;10.334;2023-02-28T00:01:13;13.88;;;8.75;;
28174;SDS011;59417;44.788;10.334;2023-02-28T00:03:40;15.75;;;8.65;;
28174;SDS011;59417;44.788;10.334;2023-02-28T00:06:07;18.20;;;9.18;;
28174;SDS011;59417;44.788;10.334;2023-02-28T00:08:34;17.65;;;9.68;;
28174;SDS011;59417;44.788;10.334;2023-02-28T00:11:05;16.98;;;10.40;;
28174;SDS011;59417;44.788;10.334;2023-02-28T00:13:33;15.23;;;9.07;;
28174;SDS011;59417;44.788;10.334;2023-02-28T00:16:01;16.67;;;9.57;;
28174;SDS011;59417;44.788;10.334;2023-02-28T00:18:31;17.17;;;9.23;;
28174;SDS011;59417;44.788;10.334;2023-02-28T00:20:57;14.18;;;8.98;;
28174;SDS011;59417;44.788;10.334;2023-02-28T00:23:23;14.10;;;9.68;;
28174;SDS011;59417;44.788;10.334;2023-02-28T00:25:48;15.93;;;9.68;;
28174;SDS011;59417;44.788;10.334;2023-02-28T00:28:15;19.20;;;9.90;;
28174;SDS011;59417;44.788;10.334;2023-02-28T00:30:40;17.80;;;9.82;;
28174;SDS011;59417;44.788;10.334;2023-02-28T00:33:06;16.42;;;9.65;;
28174;SDS011;59417;44.788;10.334;2023-02-28T00:35:32;16.15;;;9.98;;
28174;SDS011;59417;44.788;10.334;2023-02-28T00:37:58;13.65;;;9.35;;
28174;SDS011;59417;44.788;10.334;2023-02-28T00:40:26;12.98;;;8.43;;
28174;SDS011;59417;44.788;10.334;2023-02-28T00:42:52;12.68;;;7.95;;
28174;SDS011;59417;44.788;10.334;2023-02-28T00:45:17;14.60;;;9.45;;
28174;SDS011;59417;44.788;10.334;2023-02-28T00:47:43;14.20;;;8.65;;
28174;SDS011;59417;44.788;10.334;2023-02-28T00:50:08;18.17;;;9.45;;
28174;SDS011;59417;44.788;10.334;2023-02-28T00:52:35;16.33;;;9.18;;
28174;SDS011;59417;44.788;10.334;2023-02-28T00:55:01;17.23;;;9.85;;
28174;SDS011;59417;44.788;10.334;2023-02-28T00:57:26;16.85;;;9.57;;
28174;SDS011;59417;44.788;10.334;2023-02-28T00:59:52;15.45;;;9.10;;
28174;SDS011;59417;44.788;10.334;2023-02-28T01:02:21;11.63;;;7.88;;
28174;SDS011;59417;44.788;10.334;2023-02-28T01:04:47;15.45;;;9.80;;
28174;SDS011;59417;44.788;10.334;2023-02-28T01:07:13;11.75;;;8.10;;
28174;SDS011;59417;44.788;10.334;2023-02-28T01:09:39;16.27;;;9.23;;
28174;SDS011;59417;44.788;10.334;2023-02-28T01:12:06;15.65;;;8.75;;
28174;SDS011;59417;44.788;10.334;2023-02-28T01:14:33;16.67;;;9.07;;
28174;SDS011;59417;44.788;10.334;2023-02-28T01:16:59;13.55;;;8.23;;
28174;SDS011;59417;44.788;10.334;2023-02-28T01:19:25;13.05;;;9.00;;
28174;SDS011;59417;44.788;10.334;2023-02-28T01:21:51;13.88;;;9.43;;
28174;SDS011;59417;44.788;10.334;2023-02-28T01:24:17;15.95;;;9.07;;
28174;SDS011;59417;44.788;10.334;2023-02-28T01:26:43;14.75;;;8.77;;
28174;SDS011;59417;44.788;10.334;2023-02-28T01:29:09;13.40;;;8.48;;
28174;SDS011;59417;44.788;10.334;2023-02-28T01:31:34;15.23;;;9.48;;
28174;SDS011;59417;44.788;10.334;2023-02-28T01:34:00;16.65;;;9.60;;
28174;SDS011;59417;44.788;10.334;2023-02-28T01:36:27;10.88;;;8.48;;
28174;SDS011;59417;44.788;10.334;2023-02-28T01:38:54;12.27;;;9.65;;
28174;SDS011;59417;44.788;10.334;2023-02-28T01:41:28;13.45;;;8.85;;
28174;SDS011;59417;44.788;10.334;2023-02-28T01:43:57;15.02;;;8.00;;
28174;SDS011;59417;44.788;10.334;2023-02-28T01:46:31;13.48;;;7.93;;
28174;SDS011;59417;44.788;10.334;2023-02-28T01:49:00;12.00;;;8.15;;
28174;SDS011;59417;44.788;10.334;2023-02-28T01:51:44;21.88;;;9.65;;
28174;SDS011;59417;44.788;10.334;2023-02-28T01:54:16;13.73;;;8.23;;
28174;SDS011;59417;44.788;10.334;2023-02-28T01:56:51;11.63;;;7.68;;
28174;SDS011;59417;44.788;10.334;2023-02-28T01:59:33;10.43;;;8.00;;
28174;SDS011;59417;44.788;10.334;2023-02-28T02:02:04;16.35;;;8.38;;
28174;SDS011;59417;44.788;10.334;2023-02-28T02:04:37;15.00;;;9.02;;
28174;SDS011;59417;44.788;10.334;2023-02-28T02:07:07;13.05;;;8.77;;
28174;SDS011;59417;44.788;10.334;2023-02-28T02:09:33;13.57;;;8.10;;
28174;SDS011;59417;44.788;10.334;2023-02-28T02:11:59;15.02;;;8.68;;
28174;SDS011;59417;44.788;10.334;2023-02-28T02:15:09;14.93;;;8.70;;
28174;SDS011;59417;44.788;10.334;2023-02-28T02:17:44;14.10;;;8.38;;
28174;SDS011;59417;44.788;10.334;2023-02-28T02:25:50;14.20;;;9.07;;
28174;SDS011;59417;44.788;10.334;2023-02-28T02:40:13;10.30;;;7.45;;
28174;SDS011;59417;44.788;10.334;2023-02-28T02:45:25;11.90;;;7.47;;
28174;SDS011;59417;44.788;10.334;2023-02-28T02:48:00;11.73;;;7.75;;
28174;SDS011;59417;44.788;10.334;2023-02-28T02:50:38;11.52;;;8.30;;
28174;SDS011;59417;44.788;10.334;2023-02-28T02:53:09;11.05;;;8.00;;
28174;SDS011;59417;44.788;10.334;2023-02-28T02:55:39;13.30;;;8.27;;
28174;SDS011;59417;44.788;10.334;2023-02-28T02:58:08;9.77;;;7.85;;
28174;SDS011;59417;44.788;10.334;2023-02-28T03:00:45;14.05;;;7.78;;
28174;SDS011;59417;44.788;10.334;2023-02-28T03:03:16;10.73;;;8.25;;
28174;SDS011;59417;44.788;10.334;2023-02-28T03:05:49;11.63;;;8.32;;
28174;SDS011;59417;44.788;10.334;2023-02-28T03:08:16;11.27;;;8.57;;
28174;SDS011;59417;44.788;10.334;2023-02-28T03:10:43;10.60;;;8.00;;
28174;SDS011;59417;44.788;10.334;2023-02-28T03:18:54;9.52;;;7.78;;
28174;SDS011;59417;44.788;10.334;2023-02-28T03:25:09;12.60;;;7.78;;
28174;SDS011;59417;44.788;10.334;2023-02-28T03:30:24;11.13;;;8.02;;
28174;SDS011;59417;44.788;10.334;2023-02-28T03:38:29;11.98;;;7.90;;
28174;SDS011;59417;44.788;10.334;2023-02-28T03:41:05;10.38;;;7.72;;
28174;SDS011;59417;44.788;10.334;2023-02-28T03:43:38;10.63;;;7.93;;
28174;SDS011;59417;44.788;10.334;2023-02-28T03:46:09;12.10;;;8.57;;
28174;SDS011;59417;44.788;10.334;2023-02-28T03:48:43;11.02;;;8.43;;
28174;SDS011;59417;44.788;10.334;2023-02-28T03:51:11;10.95;;;7.60;;
28174;SDS011;59417;44.788;10.334;2023-02-28T03:53:44;10.00;;;7.93;;
28174;SDS011;59417;44.788;10.334;2023-02-28T03:56:14;11.05;;;8.25;;
28174;SDS011;59417;44.788;10.334;2023-02-28T04:01:30;10.02;;;8.10;;
28174;SDS011;59417;44.788;10.334;2023-02-28T04:03:57;10.55;;;7.97;;
28174;SDS011;59417;44.788;10.334;2023-02-28T04:06:23;11.30;;;7.82;;
28174;SDS011;59417;44.788;10.334;2023-02-28T04:08:49;10.35;;;7.47;;
28174;SDS011;59417;44.788;10.334;2023-02-28T04:14:00;11.68;;;8.07;;
28174;SDS011;59417;44.788;10.334;2023-02-28T04:16:27;11.15;;;7.75;;
28174;SDS011;59417;44.788;10.334;2023-02-28T04:18:53;10.40;;;8.02;;
28174;SDS011;59417;44.788;10.334;2023-02-28T04:21:19;11.93;;;8.25;;
28174;SDS011;59417;44.788;10.334;2023-02-28T04:23:47;14.10;;;8.48;;
28174;SDS011;59417;44.788;10.334;2023-02-28T04:26:13;16.05;;;8.15;;
28174;SDS011;59417;44.788;10.334;2023-02-28T04:28:38;9.43;;;7.75;;
28174;SDS011;59417;44.788;10.334;2023-02-28T04:31:04;11.73;;;8.35;;
28174;SDS011;59417;44.788;10.334;2023-02-28T04:33:31;12.48;;;7.75;;
28174;SDS011;59417;44.788;10.334;2023-02-28T04:36:04;12.73;;;8.85;;
28174;SDS011;59417;44.788;10.334;2023-02-28T04:38:33;12.18;;;7.68;;
28174;SDS011;59417;44.788;10.334;2023-02-28T04:41:02;11.50;;;7.47;;
28174;SDS011;59417;44.788;10.334;2023-02-28T04:43:28;15.80;;;8.52;;
28174;SDS011;59417;44.788;10.334;2023-02-28T04:45:55;10.88;;;8.25;;
28174;SDS011;59417;44.788;10.334;2023-02-28T04:48:22;11.45;;;8.02;;
28174;SDS011;59417;44.788;10.334;2023-02-28T04:50:49;14.63;;;9.02;;
28174;SDS011;59417;44.788;10.334;2023-02-28T04:53:15;13.55;;;8.43;;
28174;SDS011;59417;44.788;10.334;2023-02-28T04:55:41;11.55;;;7.57;;
28174;SDS011;59417;44.788;10.334;2023-02-28T04:58:07;11.27;;;7.88;;
28174;SDS011;59417;44.788;10.334;2023-02-28T05:00:32;12.38;;;8.15;;
28174;SDS011;59417;44.788;10.334;2023-02-28T05:02:58;10.00;;;8.15;;
28174;SDS011;59417;44.788;10.334;2023-02-28T05:05:23;13.13;;;8.77;;
28174;SDS011;59417;44.788;10.334;2023-02-28T05:07:49;10.23;;;8.43;;
28174;SDS011;59417;44.788;10.334;2023-02-28T05:10:15;12.48;;;7.90;;
28174;SDS011;59417;44.788;10.334;2023-02-28T05:12:40;11.98;;;8.27;;
28174;SDS011;59417;44.788;10.334;2023-02-28T05:15:12;13.10;;;8.80;;
28174;SDS011;59417;44.788;10.334;2023-02-28T05:17:38;11.68;;;8.70;;
28174;SDS011;59417;44.788;10.334;2023-02-28T05:20:04;10.25;;;7.63;;
28174;SDS011;59417;44.788;10.334;2023-02-28T05:22:31;12.95;;;8.85;;
28174;SDS011;59417;44.788;10.334;2023-02-28T05:24:57;12.88;;;8.02;;
28174;SDS011;59417;44.788;10.334;2023-02-28T05:27:23;12.57;;;8.45;;
28174;SDS011;59417;44.788;10.334;2023-02-28T05:29:48;11.40;;;7.97;;
28174;SDS011;59417;44.788;10.334;2023-02-28T05:32:14;13.45;;;9.27;;
28174;SDS011;59417;44.788;10.334;2023-02-28T05:34:40;11.73;;;8.93;;
28174;SDS011;59417;44.788;10.334;2023-02-28T05:37:10;12.50;;;8.48;;
28174;SDS011;59417;44.788;10.334;2023-02-28T05:39:38;14.00;;;8.85;;
28174;SDS011;59417;44.788;10.334;2023-02-28T05:42:03;10.07;;;8.95;;
28174;SDS011;59417;44.788;10.334;2023-02-28T05:44:29;9.70;;;8.23;;
28174;SDS011;59417;44.788;10.334;2023-02-28T05:46:57;13.10;;;8.80;;
28174;SDS011;59417;44.788;10.334;2023-02-28T05:49:23;11.30;;;8.30;;
28174;SDS011;59417;44.788;10.334;2023-02-28T05:51:48;12.10;;;8.85;;
28174;SDS011;59417;44.788;10.334;2023-02-28T05:54:14;12.95;;;9.18;;
28174;SDS011;59417;44.788;10.334;2023-02-28T05:56:40;12.88;;;9.52;;
28174;SDS011;59417;44.788;10.334;2023-02-28T05:59:09;10.70;;;8.30;;
28174;SDS011;59417;44.788;10.334;2023-02-28T06:01:37;13.50;;;8.13;;
28174;SDS011;59417;44.788;10.334;2023-02-28T06:04:05;10.85;;;8.70;;
28174;SDS011;59417;44.788;10.334;2023-02-28T06:06:35;10.90;;;9.15;;
28174;SDS011;59417;44.788;10.334;2023-02-28T06:09:02;10.35;;;8.25;;
28174;SDS011;59417;44.788;10.334;2023-02-28T06:11:31;13.15;;;8.68;;
28174;SDS011;59417;44.788;10.334;2023-02-28T06:14:05;13.07;;;8.65;;
28174;SDS011;59417;44.788;10.334;2023-02-28T06:16:33;14.55;;;9.40;;
28174;SDS011;59417;44.788;10.334;2023-02-28T06:19:04;13.02;;;9.55;;
28174;SDS011;59417;44.788;10.334;2023-02-28T06:21:34;13.30;;;9.15;;
28174;SDS011;59417;44.788;10.334;2023-02-28T06:23:59;11.02;;;8.23;;
28174;SDS011;59417;44.788;10.334;2023-02-28T06:26:28;11.68;;;9.73;;
28174;SDS011;59417;44.788;10.334;2023-02-28T06:28:54;15.23;;;10.38;;
28174;SDS011;59417;44.788;10.334;2023-02-28T06:31:23;16.33;;;10.10;;
28174;SDS011;59417;44.788;10.334;2023-02-28T06:33:51;14.93;;;9.30;;
28174;SDS011;59417;44.788;10.334;2023-02-28T06:36:17;11.82;;;9.32;;
28174;SDS011;59417;44.788;10.334;2023-02-28T06:38:43;14.43;;;10.10;;
28174;SDS011;59417;44.788;10.334;2023-02-28T06:41:10;15.60;;;9.98;;
28174;SDS011;59417;44.788;10.334;2023-02-28T06:43:37;13.70;;;9.57;;
28174;SDS011;59417;44.788;10.334;2023-02-28T06:46:06;16.08;;;9.68;;
28174;SDS011;59417;44.788;10.334;2023-02-28T06:48:33;12.85;;;10.27;;
28174;SDS011;59417;44.788;10.334;2023-02-28T06:51:03;15.55;;;9.88;;
28174;SDS011;59417;44.788;10.334;2023-02-28T06:53:30;16.65;;;10.18;;
28174;SDS011;59417;44.788;10.334;2023-02-28T06:55:56;15.18;;;9.90;;
28174;SDS011;59417;44.788;10.334;2023-02-28T06:58:22;14.13;;;10.30;;
28174;SDS011;59417;44.788;10.334;2023-02-28T07:00:49;13.40;;;9.93;;
28174;SDS011;59417;44.788;10.334;2023-02-28T07:03:16;15.98;;;10.82;;
28174;SDS011;59417;44.788;10.334;2023-02-28T07:05:43;14.77;;;9.95;;
28174;SDS011;59417;44.788;10.334;2023-02-28T07:08:10;16.50;;;9.93;;
28174;SDS011;59417;44.788;10.334;2023-02-28T07:10:36;16.70;;;11.18;;
28174;SDS011;59417;44.788;10.334;2023-02-28T07:13:03;13.50;;;10.52;;
28174;SDS011;59417;44.788;10.334;2023-02-28T07:15:30;12.07;;;9.68;;
28174;SDS011;59417;44.788;10.334;2023-02-28T07:17:56;12.70;;;9.73;;
28174;SDS011;59417;44.788;10.334;2023-02-28T07:20:22;12.85;;;8.40;;
28174;SDS011;59417;44.788;10.334;2023-02-28T07:22:48;15.98;;;10.50;;
28174;SDS011;59417;44.788;10.334;2023-02-28T07:25:20;13.63;;;10.15;;
28174;SDS011;59417;44.788;10.334;2023-02-28T07:27:47;16.02;;;10.13;;
28174;SDS011;59417;44.788;10.334;2023-02-28T07:30:12;16.05;;;10.25;;
28174;SDS011;59417;44.788;10.334;2023-02-28T07:32:38;18.50;;;10.48;;
28174;SDS011;59417;44.788;10.334;2023-02-28T07:35:04;13.55;;;9.45;;
28174;SDS011;59417;44.788;10.334;2023-02-28T07:37:30;17.65;;;9.40;;
28174;SDS011;59417;44.788;10.334;2023-02-28T07:39:56;14.77;;;9.52;;
28174;SDS011;59417;44.788;10.334;2023-02-28T07:42:22;17.48;;;10.02;;
28174;SDS011;59417;44.788;10.334;2023-02-28T07:44:50;13.18;;;9.02;;
28174;SDS011;59417;44.788;10.334;2023-02-28T07:47:16;13.55;;;9.82;;
28174;SDS011;59417;44.788;10.334;2023-02-28T07:49:42;11.95;;;8.98;;
28174;SDS011;59417;44.788;10.334;2023-02-28T07:52:08;13.52;;;9.65;;
28174;SDS011;59417;44.788;10.334;2023-02-28T07:54:33;14.38;;;8.90;;
28174;SDS011;59417;44.788;10.334;2023-02-28T07:57:05;16.52;;;11.05;;
28174;SDS011;59417;44.788;10.334;2023-02-28T07:59:31;15.00;;;10.55;;
28174;SDS011;59417;44.788;10.334;2023-02-28T08:01:57;26.65;;;10.15;;
28174;SDS011;59417;44.788;10.334;2023-02-28T08:04:23;13.63;;;9.40;;
28174;SDS011;59417;44.788;10.334;2023-02-28T08:06:49;12.18;;;9.68;;
28174;SDS011;59417;44.788;10.334;2023-02-28T08:09:17;21.65;;;10.55;;
28174;SDS011;59417;44.788;10.334;2023-02-28T08:11:42;14.13;;;9.98;;
28174;SDS011;59417;44.788;10.334;2023-02-28T08:14:08;15.18;;;10.65;;
28174;SDS011;59417;44.788;10.334;2023-02-28T08:16:34;16.13;;;10.10;;
28174;SDS011;59417;44.788;10.334;2023-02-28T08:18:59;15.90;;;10.52;;
28174;SDS011;59417;44.788;10.334;2023-02-28T08:21:25;16.15;;;10.90;;
28174;SDS011;59417;44.788;10.334;2023-02-28T08:23:51;15.82;;;10.85;;
28174;SDS011;59417;44.788;10.334;2023-02-28T08:26:17;15.50;;;10.90;;
28174;SDS011;59417;44.788;10.334;2023-02-28T08:28:43;14.05;;;10.57;;
28174;SDS011;59417;44.788;10.334;2023-02-28T08:31:10;14.23;;;11.07;;
28174;SDS011;59417;44.788;10.334;2023-02-28T08:33:37;16.63;;;11.02;;
28174;SDS011;59417;44.788;10.334;2023-02-28T08:36:04;15.45;;;10.98;;
28174;SDS011;59417;44.788;10.334;2023-02-28T08:38:31;19.13;;;11.10;;
28174;SDS011;59417;44.788;10.334;2023-02-28T08:40:57;16.80;;;10.80;;
28174;SDS011;59417;44.788;10.334;2023-02-28T08:43:25;21.17;;;10.18;;
28174;SDS011;59417;44.788;10.334;2023-02-28T08:45:52;18.40;;;12.05;;
28174;SDS011;59417;44.788;10.334;2023-02-28T08:48:18;15.00;;;10.93;;
28174;SDS011;59417;44.788;10.334;2023-02-28T08:50:44;15.75;;;10.65;;
28174;SDS011;59417;44.788;10.334;2023-02-28T08:53:10;18.45;;;12.90;;
28174;SDS011;59417;44.788;10.334;2023-02-28T08:55:39;14.82;;;11.73;;
28174;SDS011;59417;44.788;10.334;2023-02-28T08:58:05;17.00;;;11.90;;
28174;SDS011;59417;44.788;10.334;2023-02-28T09:00:30;14.77;;;11.05;;
28174;SDS011;59417;44.788;10.334;2023-02-28T09:02:56;16.33;;;12.13;;
28174;SDS011;59417;44.788;10.334;2023-02-28T09:05:22;15.52;;;11.48;;
28174;SDS011;59417;44.788;10.334;2023-02-28T09:07:49;14.77;;;11.32;;
28174;SDS011;59417;44.788;10.334;2023-02-28T09:10:15;18.00;;;11.30;;
28174;SDS011;59417;44.788;10.334;2023-02-28T09:12:40;16.80;;;11.18;;
28174;SDS011;59417;44.788;10.334;2023-02-28T09:15:06;14.02;;;11.02;;
28174;SDS011;59417;44.788;10.334;2023-02-28T09:17:32;18.80;;;10.98;;
28174;SDS011;59417;44.788;10.334;2023-02-28T09:19:58;13.55;;;10.27;;
28174;SDS011;59417;44.788;10.334;2023-02-28T09:22:24;15.35;;;10.75;;
28174;SDS011;59417;44.788;10.334;2023-02-28T09:24:50;15.27;;;11.35;;
28174;SDS011;59417;44.788;10.334;2023-02-28T09:27:15;20.35;;;11.40;;
28174;SDS011;59417;44.788;10.334;2023-02-28T09:29:41;14.18;;;11.05;;
28174;SDS011;59417;44.788;10.334;2023-02-28T09:32:07;17.83;;;11.82;;
28174;SDS011;59417;44.788;10.334;2023-02-28T09:34:32;16.60;;;11.20;;
28174;SDS011;59417;44.788;10.334;2023-02-28T09:36:58;14.18;;;10.15;;
28174;SDS011;59417;44.788;10.334;2023-02-28T09:39:23;15.88;;;11.30;;
28174;SDS011;59417;44.788;10.334;2023-02-28T09:41:52;13.00;;;10.10;;
28174;SDS011;59417;44.788;10.334;2023-02-28T09:46:51;15.10;;;11.35;;
28174;SDS011;59417;44.788;10.334;2023-02-28T09:49:23;21.10;;;12.00;;
28174;SDS011;59417;44.788;10.334;2023-02-28T09:52:05;15.63;;;11.20;;
28174;SDS011;59417;44.788;10.334;2023-02-28T09:54:35;15.63;;;11.57;;
28174;SDS011;59417;44.788;10.334;2023-02-28T10:00:05;17.35;;;10.60;;
28174;SDS011;59417;44.788;10.334;2023-02-28T10:08:19;14.70;;;10.77;;
28174;SDS011;59417;44.788;10.334;2023-02-28T10:10:51;20.75;;;12.60;;
28174;SDS011;59417;44.788;10.334;2023-02-28T10:13:26;18.00;;;12.32;;
28174;SDS011;59417;44.788;10.334;2023-02-28T10:16:11;19.85;;;13.10;;
28174;SDS011;59417;44.788;10.334;2023-02-28T10:21:21;15.10;;;11.70;;
28174;SDS011;59417;44.788;10.334;2023-02-28T10:23:53;14.40;;;11.75;;
28174;SDS011;59417;44.788;10.334;2023-02-28T10:26:39;16.27;;;12.20;;
28174;SDS011;59417;44.788;10.334;2023-02-28T10:31:35;17.10;;;11.15;;
28174;SDS011;59417;44.788;10.334;2023-02-28T10:34:00;18.52;;;12.68;;
28174;SDS011;59417;44.788;10.334;2023-02-28T10:36:26;13.38;;;10.82;;
28174;SDS011;59417;44.788;10.334;2023-02-28T10:38:53;16.67;;;11.35;;
28174;SDS011;59417;44.788;10.334;2023-02-28T10:46:54;16.50;;;11.52;;
28174;SDS011;59417;44.788;10.334;2023-02-28T10:49:24;13.67;;;9.90;;
28174;SDS011;59417;44.788;10.334;2023-02-28T10:51:54;14.60;;;10.73;;
28174;SDS011;59417;44.788;10.334;2023-02-28T10:54:24;20.73;;;11.93;;
28174;SDS011;59417;44.788;10.334;2023-02-28T10:59:46;19.00;;;12.15;;
28174;SDS011;59417;44.788;10.334;2023-02-28T11:02:33;15.00;;;11.82;;
28174;SDS011;59417;44.788;10.334;2023-02-28T11:05:02;14.00;;;11.15;;
28174;SDS011;59417;44.788;10.334;2023-02-28T11:07:51;16.15;;;11.40;;
28174;SDS011;59417;44.788;10.334;2023-02-28T11:10:21;18.45;;;11.50;;
28174;SDS011;59417;44.788;10.334;2023-02-28T11:12:54;16.65;;;11.10;;
28174;SDS011;59417;44.788;10.334;2023-02-28T11:15:22;15.38;;;11.73;;
28174;SDS011;59417;44.788;10.334;2023-02-28T11:18:01;13.77;;;10.07;;
28174;SDS011;59417;44.788;10.334;2023-02-28T11:20:51;13.88;;;10.30;;
28174;SDS011;59417;44.788;10.334;2023-02-28T11:23:22;15.18;;;10.82;;
28174;SDS011;59417;44.788;10.334;2023-02-28T11:25:51;17.58;;;11.60;;
28174;SDS011;59417;44.788;10.334;2023-02-28T11:28:27;16.10;;;11.15;;
28174;SDS011;59417;44.788;10.334;2023-02-28T11:33:54;13.85;;;10.48;;
28174;SDS011;59417;44.788;10.334;2023-02-28T11:38:50;17.60;;;11.17;;
28174;SDS011;59417;44.788;10.334;2023-02-28T11:46:57;15.93;;;12.18;;
28174;SDS011;59417;44.788;10.334;2023-02-28T11:52:30;14.15;;;11.18;;
28174;SDS011;59417;44.788;10.334;2023-02-28T11:55:16;14.43;;;10.63;;
28174;SDS011;59417;44.788;10.334;2023-02-28T11:57:57;18.17;;;11.75;;
28174;SDS011;59417;44.788;10.334;2023-02-28T12:09:18;20.75;;;12.63;;
28174;SDS011;59417;44.788;10.334;2023-02-28T12:11:55;20.08;;;11.60;;
28174;SDS011;59417;44.788;10.334;2023-02-28T12:20:38;15.50;;;11.85;;
28174;SDS011;59417;44.788;10.334;2023-02-28T12:25:58;14.43;;;11.75;;
28174;SDS011;59417;44.788;10.334;2023-02-28T12:28:36;16.05;;;11.45;;
28174;SDS011;59417;44.788;10.334;2023-02-28T12:33:40;19.90;;;12.23;;
28174;SDS011;59417;44.788;10.334;2023-02-28T12:36:11;16.70;;;11.73;;
28174;SDS011;59417;44.788;10.334;2023-02-28T12:38:48;17.08;;;10.75;;
28174;SDS011;59417;44.788;10.334;2023-02-28T12:41:19;19.83;;;12.35;;
28174;SDS011;59417;44.788;10.334;2023-02-28T12:43:55;17.27;;;11.25;;
28174;SDS011;59417;44.788;10.334;2023-02-28T12:46:36;19.73;;;12.27;;
28174;SDS011;59417;44.788;10.334;2023-02-28T12:49:08;16.67;;;12.50;;
28174;SDS011;59417;44.788;10.334;2023-02-28T12:51:40;17.70;;;11.20;;
28174;SDS011;59417;44.788;10.334;2023-02-28T12:59:45;24.30;;;12.63;;
28174;SDS011;59417;44.788;10.334;2023-02-28T13:02:20;16.88;;;11.25;;
28174;SDS011;59417;44.788;10.334;2023-02-28T13:05:11;17.70;;;12.55;;
28174;SDS011;59417;44.788;10.334;2023-02-28T13:10:39;18.17;;;12.55;;
28174;SDS011;59417;44.788;10.334;2023-02-28T13:13:16;18.27;;;12.13;;
28174;SDS011;59417;44.788;10.334;2023-02-28T13:15:57;22.30;;;13.15;;
28174;SDS011;59417;44.788;10.334;2023-02-28T13:18:28;21.20;;;13.02;;
28174;SDS011;59417;44.788;10.334;2023-02-28T13:21:01;19.35;;;12.20;;
28174;SDS011;59417;44.788;10.334;2023-02-28T13:23:41;17.60;;;12.43;;
28174;SDS011;59417;44.788;10.334;2023-02-28T13:32:18;21.33;;;12.82;;
28174;SDS011;59417;44.788;10.334;2023-02-28T13:34:47;19.70;;;12.88;;
28174;SDS011;59417;44.788;10.334;2023-02-28T13:39:50;16.23;;;12.00;;
28174;SDS011;59417;44.788;10.334;2023-02-28T13:55:43;17.30;;;13.30;;
28174;SDS011;59417;44.788;10.334;2023-02-28T14:06:35;20.83;;;13.02;;
28174;SDS011;59417;44.788;10.334;2023-02-28T14:11:44;20.05;;;14.10;;
28174;SDS011;59417;44.788;10.334;2023-02-28T14:17:05;16.70;;;12.73;;
28174;SDS011;59417;44.788;10.334;2023-02-28T14:19:35;22.05;;;13.98;;
28174;SDS011;59417;44.788;10.334;2023-02-28T14:41:32;18.65;;;13.65;;
28174;SDS011;59417;44.788;10.334;2023-02-28T14:46:50;18.60;;;14.43;;
28174;SDS011;59417;44.788;10.334;2023-02-28T14:49:30;18.30;;;13.32;;
28174;SDS011;59417;44.788;10.334;2023-02-28T14:52:20;20.85;;;14.73;;
28174;SDS011;59417;44.788;10.334;2023-02-28T14:54:52;21.95;;;14.32;;
28174;SDS011;59417;44.788;10.334;2023-02-28T14:57:24;20.85;;;14.65;;
28174;SDS011;59417;44.788;10.334;2023-02-28T14:59:56;21.73;;;14.55;;
28174;SDS011;59417;44.788;10.334;2023-02-28T15:02:35;21.02;;;13.48;;
28174;SDS011;59417;44.788;10.334;2023-02-28T15:05:18;20.88;;;14.00;;
28174;SDS011;59417;44.788;10.334;2023-02-28T15:07:48;22.27;;;14.68;;
28174;SDS011;59417;44.788;10.334;2023-02-28T15:14:06;16.77;;;13.95;;
28174;SDS011;59417;44.788;10.334;2023-02-28T15:16:34;19.35;;;13.70;;
28174;SDS011;59417;44.788;10.334;2023-02-28T15:19:11;22.23;;;15.43;;
28174;SDS011;59417;44.788;10.334;2023-02-28T15:21:50;18.75;;;14.30;;
28174;SDS011;59417;44.788;10.334;2023-02-28T15:27:11;18.55;;;14.23;;
28174;SDS011;59417;44.788;10.334;2023-02-28T15:29:50;19.45;;;14.85;;
28174;SDS011;59417;44.788;10.334;2023-02-28T15:32:24;26.15;;;15.98;;
28174;SDS011;59417;44.788;10.334;2023-02-28T15:34:53;21.13;;;15.40;;
28174;SDS011;59417;44.788;10.334;2023-02-28T15:39:53;23.15;;;15.48;;
28174;SDS011;59417;44.788;10.334;2023-02-28T15:42:20;20.73;;;15.60;;
28174;SDS011;59417;44.788;10.334;2023-02-28T15:44:48;21.85;;;15.68;;
28174;SDS011;59417;44.788;10.334;2023-02-28T15:47:21;24.63;;;16.15;;
28174;SDS011;59417;44.788;10.334;2023-02-28T15:49:49;22.15;;;15.52;;
28174;SDS011;59417;44.788;10.334;2023-02-28T15:52:26;22.67;;;15.25;;
28174;SDS011;59417;44.788;10.334;2023-02-28T15:54:59;22.38;;;16.25;;
28174;SDS011;59417;44.788;10.334;2023-02-28T15:57:43;22.00;;;14.95;;
28174;SDS011;59417;44.788;10.334;2023-02-28T16:00:12;20.75;;;15.43;;
28174;SDS011;59417;44.788;10.334;2023-02-28T16:02:40;21.55;;;15.15;;
28174;SDS011;59417;44.788;10.334;2023-02-28T16:07:31;22.90;;;16.17;;
28174;SDS011;59417;44.788;10.334;2023-02-28T16:09:58;19.75;;;16.33;;
28174;SDS011;59417;44.788;10.334;2023-02-28T16:12:28;27.50;;;16.48;;
28174;SDS011;59417;44.788;10.334;2023-02-28T16:14:57;21.30;;;15.00;;
28174;SDS011;59417;44.788;10.334;2023-02-28T16:17:27;23.88;;;14.73;;
28174;SDS011;59417;44.788;10.334;2023-02-28T16:19:56;25.83;;;15.55;;
28174;SDS011;59417;44.788;10.334;2023-02-28T16:22:22;25.23;;;15.70;;
28174;SDS011;59417;44.788;10.334;2023-02-28T16:24:47;21.40;;;17.02;;
28174;SDS011;59417;44.788;10.334;2023-02-28T16:29:54;21.27;;;14.60;;
28174;SDS011;59417;44.788;10.334;2023-02-28T16:32:20;24.02;;;15.85;;
28174;SDS011;59417;44.788;10.334;2023-02-28T16:34:48;24.13;;;16.33;;
28174;SDS011;59417;44.788;10.334;2023-02-28T16:37:15;20.75;;;15.95;;
28174;SDS011;59417;44.788;10.334;2023-02-28T16:39:43;20.58;;;15.80;;
28174;SDS011;59417;44.788;10.334;2023-02-28T16:42:31;21.83;;;15.57;;
28174;SDS011;59417;44.788;10.334;2023-02-28T16:44:56;24.40;;;16.20;;
28174;SDS011;59417;44.788;10.334;2023-02-28T16:47:23;26.88;;;16.58;;
28174;SDS011;59417;44.788;10.334;2023-02-28T16:49:52;20.75;;;15.10;;
28174;SDS011;59417;44.788;10.334;2023-02-28T16:52:17;23.52;;;17.33;;
28174;SDS011;59417;44.788;10.334;2023-02-28T16:54:43;27.52;;;16.80;;
28174;SDS011;59417;44.788;10.334;2023-02-28T16:57:30;21.92;;;14.63;;
28174;SDS011;59417;44.788;10.334;2023-02-28T16:59:55;23.40;;;14.55;;
28174;SDS011;59417;44.788;10.334;2023-02-28T17:02:20;24.45;;;15.77;;
28174;SDS011;59417;44.788;10.334;2023-02-28T17:04:46;26.45;;;16.38;;
28174;SDS011;59417;44.788;10.334;2023-02-28T17:07:12;23.55;;;15.82;;
28174;SDS011;59417;44.788;10.334;2023-02-28T17:09:41;27.83;;;17.88;;
28174;SDS011;59417;44.788;10.334;2023-02-28T17:12:07;22.30;;;16.38;;
28174;SDS011;59417;44.788;10.334;2023-02-28T17:14:33;22.63;;;17.08;;
28174;SDS011;59417;44.788;10.334;2023-02-28T17:16:59;25.00;;;15.20;;
28174;SDS011;59417;44.788;10.334;2023-02-28T17:19:25;28.25;;;16.77;;
28174;SDS011;59417;44.788;10.334;2023-02-28T17:21:50;25.23;;;16.95;;
28174;SDS011;59417;44.788;10.334;2023-02-28T17:24:16;23.33;;;16.25;;
28174;SDS011;59417;44.788;10.334;2023-02-28T17:26:42;29.67;;;17.25;;
28174;SDS011;59417;44.788;10.334;2023-02-28T17:29:13;24.60;;;16.77;;
28174;SDS011;59417;44.788;10.334;2023-02-28T17:31:44;23.65;;;17.10;;